INFORMACIÓN METAR y TAF
METAR FOR LESA
ADDS - METARS form results

(1052 UTC 03 December 2021)
Data provider http://aviationweather.gov/metar/data/
 
METAR text: LESA 031030Z 29008KT 9999 FEW005 03/01 Q1026
Conditions at: LESA (SALAMANCA (CIV/M, ES) observed 1030 UTC 03 December 2021
Temperature: 3.0°C (37°F)
Dewpoint: 1.0°C (34°F) [RH = 87%]
Pressure (altimeter): 30.30 inches Hg (1026.0 mb)
Winds: from the WNW (290 degrees) at 9 MPH (8 knots; 4.1 m/s)
Visibility: 6 or more miles (10+ km)
Ceiling: at least 12,000 feet AGL
Clouds: few clouds at 500 feet AGL
Weather: no significant weather observed at this time

METAR text: LESA 031000Z 26007KT 230V290 9999 FEW007 03/01 Q1026
Conditions at: LESA (SALAMANCA (CIV/M, ES) observed 1000 UTC 03 December 2021
Temperature: 3.0°C (37°F)
Dewpoint: 1.0°C (34°F) [RH = 87%]
Pressure (altimeter): 30.30 inches Hg (1026.0 mb)
Winds: from the W (260 degrees) at 8 MPH (7 knots; 3.6 m/s)
Visibility: 6 or more miles (10+ km)
Ceiling: at least 12,000 feet AGL
Clouds: few clouds at 700 feet AGL
Weather: no significant weather observed at this time

Forecast for: LESA (SALAMANCA (CIV/M, ES)
Text: TAF LESA 030800Z 0309/0409 26006KT CAVOK TX11/0315Z TN01/0407Z
Forecast period: 0900 UTC 03 December 2021 to 0900 UTC 04 December 2021
Forecast type: FROM: standard forecast or significant change
Winds: from the W (260 degrees) at 7 MPH (6 knots; 3.1 m/s)
Visibility: 6 or more miles (10+ km)
Ceiling: unknown
Clouds: missing
Weather: no significant weather forecast for this period
Text: PROB40
Forecast period: 2200 UTC 03 December 2021 to 0900 UTC 04 December 2021
Forecast type: TEMPORARY: The following changes expected for less than half the time period
Visibility: 0.12 miles (0.19 km)
Ceiling: indefinite ceiling with vertical visibility of 200 feet AGL
Clouds: obscured sky
Weather: FG  (fog)

 MAPA DE AEROPUERTO

 INFORMACIÓN DE PISTA
Pista 03 Longitud 8202 ft Ancho 197 ft
Elevación 2595 ft Umbral desplazado 0 ft Rumbo de pista 28
Pista 21 Longitud 8202 ft Ancho 197 ft
Elevación 2586 ft Umbral desplazado 0 ft Rumbo de pista 208
Pista 08 Longitud 6594 ft Ancho 400 ft
Elevación 2587 ft Umbral desplazado 0 ft Rumbo de pista 74
Pista 26 Longitud 6594 ft Ancho 400 ft
Elevación 2588 ft Umbral desplazado 0 ft Rumbo de pista 254

 FRECUANCIAS DEL AEROPUERTO
Tipo APP Nombre APP Frecuencia 124.4 MHZ
Tipo GND Nombre GND Frecuencia 121.85 MHZ
Tipo TWR Nombre TWR Frecuencia 139.3 MHZ

 RADIO AYUDAS DEL AEROPUERTO
Tipo VOR-DME Nombre Salamanca Frecuencia 112200 KHZ
Tipo NDB Nombre Salamanca Frecuencia 399 KHZ
Tipo NDB Nombre Salamanca Frecuencia 423 KHZ
Tipo TACAN Nombre Salamanca Frecuencia 113300 KHZ



Powered by Virtual Airlines Manager [v2.6.2]